createdAt,value
2023-02-09T00:00:07.941Z,7.35
2023-02-09T00:02:40.259Z,7.72
2023-02-09T00:05:08.838Z,7.60
2023-02-09T00:07:36.171Z,7.70
2023-02-09T00:10:04.435Z,7.40
2023-02-09T00:12:49.866Z,7.75
2023-02-09T00:15:16.798Z,6.88
2023-02-09T00:17:43.673Z,7.03
2023-02-09T00:20:10.971Z,7.63
2023-02-09T00:22:37.976Z,7.20
2023-02-09T00:25:05.126Z,7.50
2023-02-09T00:27:35.408Z,7.50
2023-02-09T00:30:03.794Z,7.68
2023-02-09T00:32:32.941Z,7.07
2023-02-09T00:35:00.004Z,7.40
2023-02-09T00:37:28.399Z,8.00
2023-02-09T00:39:55.314Z,8.05
2023-02-09T00:42:22.117Z,7.70
2023-02-09T00:44:49.917Z,7.75
2023-02-09T00:47:16.739Z,7.68
2023-02-09T00:49:43.607Z,7.45
2023-02-09T00:52:10.679Z,7.47
2023-02-09T00:54:37.742Z,7.60
2023-02-09T00:57:05.433Z,7.03
2023-02-09T00:59:35.267Z,8.20
2023-02-09T01:02:02.602Z,7.60
2023-02-09T01:04:29.560Z,7.93
2023-02-09T01:06:56.547Z,8.60
2023-02-09T01:09:23.560Z,8.20
2023-02-09T01:11:50.787Z,7.78
2023-02-09T01:14:18.036Z,8.57
2023-02-09T01:16:45.040Z,7.55
2023-02-09T01:19:14.207Z,7.60
2023-02-09T01:21:41.844Z,7.78
2023-02-09T01:24:13.798Z,7.45
2023-02-09T01:26:41.319Z,7.57
2023-02-09T01:29:08.423Z,7.75
2023-02-09T01:31:36.182Z,7.97
2023-02-09T01:34:04.327Z,9.18
2023-02-09T01:36:32.572Z,7.45
2023-02-09T01:39:01.026Z,7.90
2023-02-09T01:41:28.403Z,8.25
2023-02-09T01:43:58.325Z,8.18
2023-02-09T01:46:27.948Z,7.85
2023-02-09T01:49:03.222Z,7.88
2023-02-09T01:51:36.669Z,7.45
2023-02-09T01:54:32.976Z,8.20
2023-02-09T01:57:16.804Z,7.93
2023-02-09T01:59:46.949Z,7.88
2023-02-09T02:02:14.829Z,8.77
2023-02-09T02:04:44.197Z,8.52
2023-02-09T02:07:28.402Z,7.53
2023-02-09T02:09:55.392Z,7.43
2023-02-09T02:12:23.460Z,8.45
2023-02-09T02:14:51.399Z,8.60
2023-02-09T02:17:43.181Z,8.48
2023-02-09T02:20:47.923Z,8.15
2023-02-09T02:23:20.810Z,8.32
2023-02-09T02:26:08.966Z,7.90
2023-02-09T02:29:00.558Z,7.82
2023-02-09T02:31:57.217Z,8.73
2023-02-09T02:34:33.413Z,8.68
2023-02-09T02:37:21.348Z,7.32
2023-02-09T02:39:51.232Z,8.10
2023-02-09T02:42:50.245Z,8.50
2023-02-09T02:45:46.584Z,8.07
2023-02-09T02:48:41.397Z,7.45
2023-02-09T02:51:17.635Z,7.70
2023-02-09T02:53:51.064Z,7.35
2023-02-09T02:56:31.944Z,7.93
2023-02-09T02:59:02.322Z,7.55
2023-02-09T03:01:34.321Z,7.60
2023-02-09T03:04:04.661Z,7.57
2023-02-09T03:06:37.265Z,7.10
2023-02-09T03:09:04.817Z,7.30
2023-02-09T03:11:36.200Z,8.30
2023-02-09T03:14:09.052Z,8.03
2023-02-09T03:16:54.045Z,8.00
2023-02-09T03:19:35.629Z,8.25
2023-02-09T03:22:05.282Z,8.60
2023-02-09T03:24:44.509Z,8.23
2023-02-09T03:27:19.272Z,8.18
2023-02-09T03:29:48.693Z,9.40
2023-02-09T03:32:17.692Z,8.30
2023-02-09T03:34:45.806Z,8.00
2023-02-09T03:37:12.845Z,8.13
2023-02-09T03:39:39.955Z,8.90
2023-02-09T03:42:07.077Z,8.30
2023-02-09T03:44:33.949Z,8.10
2023-02-09T03:47:05.979Z,7.82
2023-02-09T03:49:39.329Z,8.48
2023-02-09T03:52:08.936Z,7.90
2023-02-09T03:54:37.025Z,8.68
2023-02-09T03:57:04.710Z,7.93
2023-02-09T03:59:35.484Z,8.35
2023-02-09T04:02:03.423Z,8.10
2023-02-09T04:04:31.046Z,8.15
2023-02-09T04:06:58.219Z,7.93
2023-02-09T04:09:25.701Z,7.82
2023-02-09T04:11:53.441Z,7.47
2023-02-09T04:14:20.703Z,7.32
2023-02-09T04:16:47.605Z,8.20
2023-02-09T04:19:15.779Z,8.02
2023-02-09T04:21:42.721Z,6.88
2023-02-09T04:24:10.296Z,7.75
2023-02-09T04:26:37.418Z,7.07
2023-02-09T04:29:04.705Z,7.35
2023-02-09T04:31:32.007Z,7.32
2023-02-09T04:33:58.914Z,7.85
2023-02-09T04:36:25.862Z,7.53
2023-02-09T04:38:52.725Z,7.32
2023-02-09T04:41:19.610Z,7.88
2023-02-09T04:43:47.046Z,6.40
2023-02-09T04:46:15.986Z,7.90
2023-02-09T04:48:43.359Z,6.70
2023-02-09T04:51:10.585Z,7.75
2023-02-09T04:53:37.577Z,7.72
2023-02-09T04:56:04.964Z,7.32
2023-02-09T04:58:50.283Z,6.72
2023-02-09T05:01:26.899Z,6.85
2023-02-09T05:03:53.912Z,6.72
2023-02-09T05:06:21.022Z,7.15
2023-02-09T05:08:48.662Z,7.57
2023-02-09T05:11:15.864Z,7.78
2023-02-09T05:13:42.779Z,7.18
2023-02-09T05:16:13.555Z,7.85
2023-02-09T05:18:40.430Z,7.57
2023-02-09T05:21:07.324Z,7.35
2023-02-09T05:23:34.358Z,7.72
2023-02-09T05:26:01.344Z,7.53
2023-02-09T05:28:28.280Z,7.90
2023-02-09T05:30:55.212Z,8.07
2023-02-09T05:33:23.561Z,7.80
2023-02-09T05:35:52.502Z,7.55
2023-02-09T05:38:19.683Z,7.22
2023-02-09T05:40:47.059Z,8.40
2023-02-09T05:43:14.124Z,8.07
2023-02-09T05:45:41.022Z,8.00
2023-02-09T05:48:07.947Z,7.85
2023-02-09T05:50:35.971Z,7.07
2023-02-09T05:53:07.874Z,7.55
2023-02-09T05:55:34.858Z,7.80
2023-02-09T05:58:01.781Z,7.30
2023-02-09T06:00:29.912Z,7.97
2023-02-09T06:02:58.489Z,7.40
2023-02-09T06:05:25.877Z,8.40
2023-02-09T06:07:52.833Z,8.00
2023-02-09T06:10:20.170Z,8.48
2023-02-09T06:12:47.007Z,7.43
2023-02-09T06:15:16.397Z,7.10
2023-02-09T06:17:43.645Z,7.63
2023-02-09T06:20:11.268Z,8.20
2023-02-09T06:22:38.121Z,7.97
2023-02-09T06:25:05.170Z,7.63
2023-02-09T06:27:32.033Z,7.20
2023-02-09T06:29:58.886Z,7.88
2023-02-09T06:32:25.717Z,7.10
2023-02-09T06:34:52.589Z,7.82
2023-02-09T06:37:19.452Z,7.57
2023-02-09T06:39:46.274Z,7.35
2023-02-09T06:42:13.164Z,7.68
2023-02-09T06:44:40.025Z,8.05
2023-02-09T06:47:06.989Z,7.30
2023-02-09T06:49:33.822Z,7.93
2023-02-09T06:52:00.777Z,7.50
2023-02-09T06:54:30.494Z,7.75
2023-02-09T06:56:57.369Z,7.60
2023-02-09T06:59:24.257Z,7.88
2023-02-09T07:01:54.577Z,8.25
2023-02-09T07:04:22.320Z,7.75
2023-02-09T07:06:49.204Z,6.95
2023-02-09T07:09:16.037Z,9.95
2023-02-09T07:11:43.760Z,8.70
2023-02-09T07:14:10.645Z,7.45
2023-02-09T07:16:37.533Z,7.10
2023-02-09T07:19:04.412Z,7.78
2023-02-09T07:21:31.294Z,7.85
2023-02-09T07:23:58.206Z,7.85
2023-02-09T07:26:25.236Z,8.15
2023-02-09T07:28:52.069Z,7.32
2023-02-09T07:31:19.107Z,7.70
2023-02-09T07:33:46.735Z,8.50
2023-02-09T07:36:15.718Z,7.78
2023-02-09T07:38:43.024Z,8.68
2023-02-09T07:41:17.731Z,7.90
2023-02-09T07:43:44.689Z,7.28
2023-02-09T07:46:14.852Z,8.45
2023-02-09T07:48:42.171Z,8.27
2023-02-09T07:51:17.108Z,9.85
2023-02-09T07:53:44.223Z,8.68
2023-02-09T07:56:11.425Z,8.13
2023-02-09T07:58:38.475Z,7.43
2023-02-09T08:01:07.585Z,7.90
2023-02-09T08:03:36.182Z,8.00
2023-02-09T08:06:36.252Z,8.05
2023-02-09T08:09:08.712Z,7.60
2023-02-09T08:11:51.704Z,7.57
2023-02-09T08:14:24.387Z,7.50
2023-02-09T08:17:15.089Z,8.27
2023-02-09T08:19:42.034Z,8.25
2023-02-09T08:22:09.099Z,8.05
2023-02-09T08:24:36.074Z,7.50
2023-02-09T08:27:03.833Z,8.02
2023-02-09T08:29:30.799Z,8.68
2023-02-09T08:31:57.744Z,7.72
2023-02-09T08:34:24.800Z,8.27
2023-02-09T08:36:52.855Z,8.40
2023-02-09T08:39:19.796Z,8.57
2023-02-09T08:41:46.662Z,7.38
2023-02-09T08:44:13.550Z,8.27
2023-02-09T08:46:40.517Z,9.00
2023-02-09T08:49:07.545Z,8.10
2023-02-09T08:51:34.348Z,9.27
2023-02-09T08:54:01.265Z,8.95
2023-02-09T08:56:28.070Z,8.20
2023-02-09T08:58:54.898Z,8.13
2023-02-09T09:01:21.772Z,9.02
2023-02-09T09:03:49.536Z,8.45
2023-02-09T09:06:16.959Z,9.20
2023-02-09T09:08:43.909Z,8.90
2023-02-09T09:11:13.237Z,9.13
2023-02-09T09:13:41.062Z,8.63
2023-02-09T09:16:14.413Z,8.73
2023-02-09T09:18:41.224Z,8.45
2023-02-09T09:21:08.070Z,8.55
2023-02-09T09:23:34.940Z,9.25
2023-02-09T09:26:03.337Z,9.77
2023-02-09T09:28:31.099Z,8.75
2023-02-09T09:31:02.058Z,10.13
2023-02-09T09:33:28.948Z,9.63
2023-02-09T09:35:58.945Z,8.45
2023-02-09T09:38:25.824Z,9.68
2023-02-09T09:40:53.265Z,9.45
2023-02-09T09:43:28.202Z,10.35
2023-02-09T09:45:55.183Z,9.52
2023-02-09T09:48:28.236Z,9.40
2023-02-09T09:51:05.119Z,9.15
2023-02-09T09:53:36.774Z,8.98
2023-02-09T09:56:10.111Z,9.65
2023-02-09T09:58:42.810Z,9.60
2023-02-09T10:01:14.650Z,9.63
2023-02-09T10:03:41.676Z,8.95
2023-02-09T10:06:14.622Z,8.88
2023-02-09T10:09:01.847Z,8.85
2023-02-09T10:11:53.679Z,12.68
2023-02-09T10:14:22.819Z,9.48
2023-02-09T10:16:50.575Z,9.18
2023-02-09T10:19:21.698Z,8.45
2023-02-09T10:21:49.274Z,9.07
2023-02-09T10:24:31.930Z,9.85
2023-02-09T10:27:15.217Z,9.75
2023-02-09T10:29:42.587Z,9.25
2023-02-09T10:32:39.807Z,9.93
2023-02-09T10:35:25.758Z,9.75
2023-02-09T10:38:00.994Z,9.63
2023-02-09T10:40:31.227Z,9.38
2023-02-09T10:43:01.012Z,9.88
2023-02-09T10:45:52.450Z,9.40
2023-02-09T10:48:20.883Z,10.27
2023-02-09T10:51:29.617Z,10.82
2023-02-09T10:54:04.803Z,9.10
2023-02-09T10:56:47.669Z,11.35
2023-02-09T10:59:16.738Z,10.80
2023-02-09T11:01:55.635Z,11.48
2023-02-09T11:04:25.823Z,10.68
2023-02-09T11:07:02.266Z,10.75
2023-02-09T11:09:36.608Z,10.93
2023-02-09T11:12:03.838Z,10.65
2023-02-09T11:14:30.679Z,11.82
2023-02-09T11:17:08.429Z,11.13
2023-02-09T11:19:59.192Z,11.43
2023-02-09T11:22:37.038Z,11.35
2023-02-09T11:25:30.332Z,11.50
2023-02-09T11:28:21.659Z,11.13
2023-02-09T11:31:00.777Z,11.68
2023-02-09T11:33:33.571Z,12.18
2023-02-09T11:36:18.490Z,11.50
2023-02-09T11:38:54.172Z,12.15
2023-02-09T11:42:03.340Z,12.30
2023-02-09T11:44:41.520Z,11.05
2023-02-09T11:47:19.318Z,12.10
2023-02-09T11:49:52.476Z,11.82
2023-02-09T11:52:28.285Z,12.75
2023-02-09T11:54:59.198Z,12.77
2023-02-09T11:57:36.256Z,12.80
2023-02-09T12:00:06.874Z,12.50
2023-02-09T12:02:54.654Z,11.77
2023-02-09T12:05:23.579Z,12.88
2023-02-09T12:08:40.361Z,13.60
2023-02-09T12:11:27.463Z,12.23
2023-02-09T12:14:03.410Z,13.15
2023-02-09T12:16:43.504Z,12.90
2023-02-09T12:19:25.379Z,12.80
2023-02-09T12:21:52.297Z,13.40
2023-02-09T12:24:37.481Z,13.60
2023-02-09T12:27:04.373Z,13.25
2023-02-09T12:29:36.985Z,14.10
2023-02-09T12:32:03.925Z,13.77
2023-02-09T12:34:43.047Z,14.43
2023-02-09T12:37:12.908Z,13.23
2023-02-09T12:40:11.608Z,12.52
2023-02-09T12:42:53.703Z,14.23
2023-02-09T12:45:42.421Z,12.68
2023-02-09T12:48:09.269Z,13.32
2023-02-09T12:50:47.085Z,13.30
2023-02-09T12:53:23.087Z,14.77
2023-02-09T12:56:07.094Z,13.30
2023-02-09T12:58:39.948Z,13.65
2023-02-09T13:01:07.225Z,14.55
2023-02-09T13:04:01.204Z,14.25
2023-02-09T13:06:54.411Z,14.32
2023-02-09T13:09:28.630Z,14.23
2023-02-09T13:12:17.429Z,15.45
2023-02-09T13:14:48.766Z,15.63
2023-02-09T13:17:39.286Z,15.75
2023-02-09T13:20:34.558Z,15.88
2023-02-09T13:23:22.874Z,15.35
2023-02-09T13:25:49.738Z,14.70
2023-02-09T13:28:26.403Z,14.57
2023-02-09T13:30:53.733Z,15.05
2023-02-09T13:33:20.599Z,15.52
2023-02-09T13:36:32.037Z,15.52
2023-02-09T13:38:58.950Z,15.65
2023-02-09T13:41:38.302Z,15.35
2023-02-09T13:44:26.553Z,15.82
2023-02-09T13:46:59.665Z,16.42
2023-02-09T13:49:28.717Z,16.85
2023-02-09T13:52:19.886Z,14.98
2023-02-09T13:54:47.009Z,16.50
2023-02-09T13:57:17.117Z,16.58
2023-02-09T13:59:44.481Z,17.30
2023-02-09T14:02:25.820Z,15.38
2023-02-09T14:05:00.509Z,16.23
2023-02-09T14:07:33.055Z,17.33
2023-02-09T14:10:27.198Z,15.65
2023-02-09T14:13:14.058Z,15.88
2023-02-09T14:16:01.996Z,17.25
2023-02-09T14:18:33.209Z,16.63
2023-02-09T14:21:37.699Z,16.48
2023-02-09T14:24:33.796Z,16.70
2023-02-09T14:27:05.366Z,16.10
2023-02-09T14:29:37.031Z,17.08
2023-02-09T14:32:33.066Z,18.80
2023-02-09T14:35:21.266Z,18.85
2023-02-09T14:37:50.025Z,17.52
2023-02-09T14:40:30.851Z,18.42
2023-02-09T14:43:03.885Z,18.25
2023-02-09T14:45:36.450Z,19.50
2023-02-09T14:48:18.967Z,18.98
2023-02-09T14:53:15.829Z,18.63
2023-02-09T14:55:44.429Z,19.02
2023-02-09T14:58:18.356Z,18.70
2023-02-09T15:00:45.248Z,19.83
2023-02-09T15:03:12.155Z,19.88
2023-02-09T15:05:39.307Z,18.88
2023-02-09T15:08:10.425Z,22.75
2023-02-09T15:10:42.501Z,19.27
2023-02-09T15:13:12.224Z,19.38
2023-02-09T15:15:39.881Z,19.63
2023-02-09T15:18:07.657Z,20.17
2023-02-09T15:20:34.681Z,20.10
2023-02-09T15:23:01.520Z,19.40
2023-02-09T15:25:29.358Z,19.92
2023-02-09T15:27:58.573Z,19.30
2023-02-09T15:30:29.367Z,20.25
2023-02-09T15:32:56.415Z,22.23
2023-02-09T15:35:25.825Z,23.08
2023-02-09T15:37:55.711Z,20.38
2023-02-09T15:40:54.313Z,21.38
2023-02-09T15:43:41.678Z,20.30
2023-02-09T15:46:28.054Z,21.10
2023-02-09T15:48:54.947Z,21.23
2023-02-09T15:51:25.058Z,20.83
2023-02-09T15:53:54.837Z,19.83
2023-02-09T15:56:21.799Z,21.50
2023-02-09T15:58:51.648Z,21.40
2023-02-09T16:01:19.063Z,20.10
2023-02-09T16:03:46.105Z,21.27
2023-02-09T16:06:31.365Z,21.63
2023-02-09T16:09:01.087Z,21.70
2023-02-09T16:11:35.300Z,21.83
2023-02-09T16:14:02.212Z,22.65
2023-02-09T16:16:30.615Z,22.08
2023-02-09T16:18:57.582Z,21.83
2023-02-09T16:21:31.290Z,21.80
2023-02-09T16:24:01.483Z,21.92
2023-02-09T16:26:29.946Z,21.50
2023-02-09T16:28:57.430Z,22.13
2023-02-09T16:31:25.355Z,22.65
2023-02-09T16:33:52.666Z,24.05
2023-02-09T16:36:21.986Z,23.00
2023-02-09T16:38:49.220Z,22.88
2023-02-09T16:41:36.766Z,23.58
2023-02-09T16:44:21.211Z,25.80
2023-02-09T16:46:50.994Z,22.83
2023-02-09T16:49:32.867Z,24.73
2023-02-09T16:52:21.706Z,23.63
2023-02-09T16:54:51.885Z,24.38
2023-02-09T16:57:20.954Z,23.02
2023-02-09T16:59:47.878Z,23.45
2023-02-09T17:02:43.471Z,21.98
2023-02-09T17:05:19.458Z,24.25
2023-02-09T17:07:54.653Z,23.48
2023-02-09T17:10:25.514Z,24.42
2023-02-09T17:12:53.762Z,25.55
2023-02-09T17:15:30.049Z,26.15
2023-02-09T17:18:03.160Z,26.08
2023-02-09T17:20:41.146Z,25.67
2023-02-09T17:23:14.325Z,25.17
2023-02-09T17:25:41.271Z,26.63
2023-02-09T17:28:08.064Z,26.15
2023-02-09T17:30:35.600Z,26.35
2023-02-09T17:33:05.770Z,25.52
2023-02-09T17:36:03.747Z,26.58
2023-02-09T17:38:26.228Z,27.15
2023-02-09T17:40:55.488Z,25.67
2023-02-09T17:43:23.023Z,26.60
2023-02-09T17:45:51.251Z,26.15
2023-02-09T17:48:22.214Z,26.33
2023-02-09T17:50:52.558Z,27.45
2023-02-09T17:53:28.329Z,28.05
2023-02-09T17:55:56.398Z,27.95
2023-02-09T17:58:24.333Z,29.05
2023-02-09T18:00:53.169Z,27.23
2023-02-09T18:03:22.625Z,27.83
2023-02-09T18:05:53.712Z,26.77
2023-02-09T18:08:20.709Z,26.73
2023-02-09T18:10:47.962Z,27.25
2023-02-09T18:13:19.778Z,27.63
2023-02-09T18:15:52.219Z,27.02
2023-02-09T18:18:19.093Z,26.67
2023-02-09T18:20:45.942Z,28.08
2023-02-09T18:23:16.189Z,26.60
2023-02-09T18:25:43.361Z,27.00
2023-02-09T18:28:10.305Z,27.88
2023-02-09T18:30:39.359Z,29.63
2023-02-09T18:33:07.697Z,28.30
2023-02-09T18:35:38.135Z,29.92
2023-02-09T18:38:08.036Z,28.85
2023-02-09T18:40:35.409Z,29.38
2023-02-09T18:43:03.957Z,28.13
2023-02-09T18:45:31.100Z,28.50
2023-02-09T18:47:58.613Z,28.52
2023-02-09T18:50:28.277Z,30.13
2023-02-09T18:52:57.978Z,28.10
2023-02-09T18:55:29.193Z,29.13
2023-02-09T18:57:58.536Z,28.55
2023-02-09T19:00:25.875Z,28.88
2023-02-09T19:02:57.436Z,28.55
2023-02-09T19:05:26.739Z,30.33
2023-02-09T19:07:55.388Z,29.77
2023-02-09T19:10:23.410Z,29.52
2023-02-09T19:12:50.293Z,29.10
2023-02-09T19:15:18.392Z,28.88
2023-02-09T19:17:45.893Z,29.65
2023-02-09T19:20:17.868Z,30.05
2023-02-09T19:22:47.184Z,30.27
2023-02-09T19:25:15.232Z,31.27
2023-02-09T19:27:42.319Z,31.08
2023-02-09T19:30:13.171Z,29.20
2023-02-09T19:32:41.393Z,30.02
2023-02-09T19:35:08.934Z,31.75
2023-02-09T19:37:37.442Z,29.77
2023-02-09T19:40:07.261Z,31.67
2023-02-09T19:42:34.485Z,31.55
2023-02-09T19:45:01.384Z,31.70
2023-02-09T19:47:28.406Z,33.50
2023-02-09T19:49:57.847Z,31.88
2023-02-09T19:52:26.214Z,32.78
2023-02-09T19:54:54.077Z,31.77
2023-02-09T19:57:22.112Z,31.70
2023-02-09T19:59:49.389Z,33.42
2023-02-09T20:02:17.105Z,31.70
2023-02-09T20:04:45.866Z,33.20
2023-02-09T20:07:14.507Z,34.15
2023-02-09T20:09:41.910Z,33.25
2023-02-09T20:12:08.988Z,34.38
2023-02-09T20:14:35.956Z,34.90
2023-02-09T20:17:02.838Z,35.60
2023-02-09T20:19:30.048Z,36.10
2023-02-09T20:21:56.921Z,35.75
2023-02-09T20:24:24.053Z,35.90
2023-02-09T20:26:50.933Z,35.42
2023-02-09T20:29:19.196Z,33.83
2023-02-09T20:31:46.322Z,34.38
2023-02-09T20:34:14.910Z,36.35
2023-02-09T20:36:44.688Z,34.65
2023-02-09T20:39:15.886Z,36.38
2023-02-09T20:42:06.272Z,34.60
2023-02-09T20:44:52.548Z,33.65
2023-02-09T20:47:20.116Z,35.58
2023-02-09T20:49:47.013Z,36.58
2023-02-09T20:52:13.921Z,36.45
2023-02-09T20:54:40.866Z,35.45
2023-02-09T20:57:07.664Z,35.05
2023-02-09T20:59:34.786Z,37.17
2023-02-09T21:02:02.029Z,38.45
2023-02-09T21:04:30.124Z,35.78
2023-02-09T21:06:57.760Z,33.97
2023-02-09T21:09:28.263Z,35.17
2023-02-09T21:11:56.167Z,36.22
2023-02-09T21:14:27.672Z,37.95
2023-02-09T21:16:59.622Z,36.10
2023-02-09T21:19:26.535Z,37.60
2023-02-09T21:21:53.736Z,37.17
2023-02-09T21:24:20.671Z,38.70
2023-02-09T21:26:47.570Z,39.47
2023-02-09T21:29:14.644Z,37.08
2023-02-09T21:31:41.917Z,39.35
2023-02-09T21:34:12.239Z,39.25
2023-02-09T21:36:39.014Z,38.20
2023-02-09T21:39:05.887Z,49.42
2023-02-09T21:41:51.234Z,35.22
2023-02-09T21:44:18.084Z,42.38
2023-02-09T21:46:44.936Z,47.55
2023-02-09T21:49:15.207Z,37.92
2023-02-09T21:51:42.374Z,51.97
2023-02-09T21:54:14.358Z,38.45
2023-02-09T21:56:41.629Z,32.13
2023-02-09T21:59:08.746Z,32.95
2023-02-09T22:01:36.418Z,22.70
2023-02-09T22:04:03.924Z,27.83
2023-02-09T22:06:31.566Z,34.03
2023-02-09T22:09:02.372Z,33.30
2023-02-09T22:11:29.432Z,34.67
2023-02-09T22:13:56.540Z,30.25
2023-02-09T22:16:24.357Z,26.83
2023-02-09T22:18:51.820Z,24.77
2023-02-09T22:21:19.249Z,29.58
2023-02-09T22:23:46.215Z,30.33
2023-02-09T22:26:14.022Z,30.50
2023-02-09T22:28:42.180Z,32.25
2023-02-09T22:31:11.966Z,31.52
2023-02-09T22:33:39.490Z,31.80
2023-02-09T22:36:08.624Z,31.02
2023-02-09T22:38:36.675Z,39.10
2023-02-09T22:41:05.457Z,31.52
2023-02-09T22:43:32.570Z,28.77
2023-02-09T22:45:59.514Z,29.80
2023-02-09T22:48:26.491Z,29.00
2023-02-09T22:50:53.368Z,32.67
2023-02-09T22:53:20.212Z,42.15
2023-02-09T22:55:48.360Z,49.83
2023-02-09T22:58:15.721Z,59.65
2023-02-09T23:00:42.574Z,28.15
2023-02-09T23:03:09.597Z,30.27
2023-02-09T23:05:36.484Z,31.20
2023-02-09T23:08:03.558Z,32.90
2023-02-09T23:10:31.093Z,32.58
2023-02-09T23:12:57.922Z,31.77
2023-02-09T23:15:24.908Z,31.90
2023-02-09T23:17:51.779Z,30.67
2023-02-09T23:20:18.864Z,30.08
2023-02-09T23:22:46.433Z,30.92
2023-02-09T23:25:13.280Z,30.27
2023-02-09T23:27:40.340Z,30.58
2023-02-09T23:30:07.648Z,29.58
2023-02-09T23:32:34.489Z,29.20
2023-02-09T23:35:01.365Z,29.13
2023-02-09T23:37:36.742Z,28.55
2023-02-09T23:40:04.194Z,27.23
2023-02-09T23:42:31.031Z,25.88
2023-02-09T23:44:57.901Z,27.75
2023-02-09T23:47:24.819Z,26.45
2023-02-09T23:49:51.656Z,28.27
2023-02-09T23:52:18.560Z,26.95
2023-02-09T23:54:45.416Z,28.42
2023-02-09T23:57:12.249Z,27.17
2023-02-09T23:59:39.258Z,26.13
